createdAt,value
2022-08-25T00:02:01.989Z,100.00
2022-08-25T00:04:30.352Z,100.00
2022-08-25T00:07:02.772Z,100.00
2022-08-25T00:09:31.497Z,100.00
2022-08-25T00:11:58.929Z,100.00
2022-08-25T00:14:29.227Z,100.00
2022-08-25T00:16:56.131Z,100.00
2022-08-25T00:19:26.961Z,100.00
2022-08-25T00:21:54.778Z,100.00
2022-08-25T00:24:22.500Z,100.00
2022-08-25T00:26:52.421Z,100.00
2022-08-25T00:29:19.432Z,100.00
2022-08-25T00:31:46.388Z,100.00
2022-08-25T00:34:17.689Z,100.00
2022-08-25T00:36:45.178Z,100.00
2022-08-25T00:39:11.841Z,100.00
2022-08-25T00:41:41.903Z,100.00
2022-08-25T00:44:17.488Z,100.00
2022-08-25T00:46:47.669Z,100.00
2022-08-25T00:49:17.949Z,100.00
2022-08-25T00:51:56.964Z,100.00
2022-08-25T00:54:34.973Z,100.00
2022-08-25T00:57:03.962Z,100.00
2022-08-25T00:59:32.514Z,100.00
2022-08-25T01:02:00.049Z,100.00
2022-08-25T01:04:27.445Z,100.00
2022-08-25T01:06:55.503Z,100.00
2022-08-25T01:09:22.250Z,100.00
2022-08-25T01:11:49.303Z,100.00
2022-08-25T01:14:18.939Z,100.00
2022-08-25T01:16:46.356Z,100.00
2022-08-25T01:19:17.708Z,100.00
2022-08-25T01:21:49.131Z,100.00
2022-08-25T01:24:41.088Z,100.00
2022-08-25T01:27:08.431Z,100.00
2022-08-25T01:29:36.163Z,100.00
2022-08-25T01:32:06.194Z,100.00
2022-08-25T01:34:36.743Z,100.00
2022-08-25T01:37:04.748Z,100.00
2022-08-25T01:39:34.023Z,100.00
2022-08-25T01:42:09.557Z,100.00
2022-08-25T01:44:39.122Z,100.00
2022-08-25T01:47:07.000Z,100.00
2022-08-25T01:49:34.050Z,100.00
2022-08-25T01:52:11.330Z,100.00
2022-08-25T01:54:38.295Z,100.00
2022-08-25T01:57:05.063Z,100.00
2022-08-25T01:59:31.684Z,100.00
2022-08-25T02:02:00.183Z,100.00
2022-08-25T02:04:32.097Z,100.00
2022-08-25T02:07:02.769Z,100.00
2022-08-25T02:09:29.689Z,100.00
2022-08-25T02:11:56.928Z,100.00
2022-08-25T02:14:24.196Z,100.00
2022-08-25T02:16:53.124Z,100.00
2022-08-25T02:19:22.165Z,100.00
2022-08-25T02:21:49.005Z,100.00
2022-08-25T02:24:16.025Z,100.00
2022-08-25T02:26:42.778Z,100.00
2022-08-25T02:29:10.463Z,100.00
2022-08-25T02:31:37.250Z,100.00
2022-08-25T02:34:04.696Z,100.00
2022-08-25T02:36:32.345Z,100.00
2022-08-25T02:38:59.799Z,100.00
2022-08-25T02:41:31.282Z,100.00
2022-08-25T02:44:00.071Z,100.00
2022-08-25T02:46:27.266Z,100.00
2022-08-25T02:48:54.042Z,100.00
2022-08-25T02:51:22.666Z,100.00
2022-08-25T02:53:49.871Z,100.00
2022-08-25T02:56:18.275Z,100.00
2022-08-25T02:58:46.019Z,100.00
2022-08-25T03:01:13.937Z,100.00
2022-08-25T03:03:42.187Z,100.00
2022-08-25T03:06:13.209Z,100.00
2022-08-25T03:08:41.727Z,100.00
2022-08-25T03:11:08.538Z,100.00
2022-08-25T03:13:35.620Z,100.00
2022-08-25T03:16:03.172Z,100.00
2022-08-25T03:18:30.768Z,100.00
2022-08-25T03:20:57.649Z,100.00
2022-08-25T03:23:24.791Z,100.00
2022-08-25T03:26:10.162Z,100.00
2022-08-25T03:28:36.885Z,100.00
2022-08-25T03:31:04.287Z,100.00
2022-08-25T03:33:31.675Z,100.00
2022-08-25T03:35:59.249Z,100.00
2022-08-25T03:38:27.365Z,100.00
2022-08-25T03:40:54.371Z,100.00
2022-08-25T03:43:21.475Z,100.00
2022-08-25T03:45:48.652Z,100.00
2022-08-25T03:48:16.484Z,100.00
2022-08-25T03:50:51.683Z,100.00
2022-08-25T03:53:20.339Z,100.00
2022-08-25T03:55:47.502Z,100.00
2022-08-25T03:58:14.412Z,100.00
2022-08-25T04:00:41.086Z,100.00
2022-08-25T04:03:07.796Z,100.00
2022-08-25T04:05:35.334Z,100.00
2022-08-25T04:08:02.313Z,100.00
2022-08-25T04:10:29.610Z,100.00
2022-08-25T04:12:57.271Z,100.00
2022-08-25T04:15:28.614Z,100.00
2022-08-25T04:17:59.088Z,100.00
2022-08-25T04:20:26.233Z,100.00
2022-08-25T04:22:53.190Z,100.00
2022-08-25T04:25:20.341Z,100.00
2022-08-25T04:27:46.959Z,100.00
2022-08-25T04:30:14.664Z,100.00
2022-08-25T04:32:41.293Z,100.00
2022-08-25T04:35:08.762Z,100.00
2022-08-25T04:37:35.375Z,100.00
2022-08-25T04:40:02.513Z,100.00
2022-08-25T04:42:29.189Z,100.00
2022-08-25T04:44:55.915Z,100.00
2022-08-25T04:47:22.833Z,100.00
2022-08-25T04:49:49.891Z,100.00
2022-08-25T04:52:16.544Z,100.00
2022-08-25T04:54:43.931Z,100.00
2022-08-25T04:57:10.858Z,100.00
2022-08-25T04:59:37.489Z,100.00
2022-08-25T05:02:05.654Z,100.00
2022-08-25T05:04:35.244Z,100.00
2022-08-25T05:07:02.400Z,100.00
2022-08-25T05:09:32.312Z,100.00
2022-08-25T05:12:00.256Z,100.00
2022-08-25T05:14:26.966Z,100.00
2022-08-25T05:16:55.090Z,100.00
2022-08-25T05:19:23.979Z,100.00
2022-08-25T05:21:51.583Z,100.00
2022-08-25T05:24:18.920Z,100.00
2022-08-25T05:26:45.968Z,100.00
2022-08-25T05:29:12.784Z,100.00
2022-08-25T05:31:43.108Z,100.00
2022-08-25T05:34:12.237Z,100.00
2022-08-25T05:36:43.208Z,100.00
2022-08-25T05:39:10.845Z,100.00
2022-08-25T05:41:37.930Z,100.00
2022-08-25T05:44:04.883Z,100.00
2022-08-25T05:46:31.800Z,100.00
2022-08-25T05:48:59.115Z,100.00
2022-08-25T05:51:26.680Z,100.00
2022-08-25T05:53:54.039Z,100.00
2022-08-25T05:56:20.896Z,100.00
2022-08-25T05:58:47.843Z,100.00
2022-08-25T06:01:43.452Z,100.00
2022-08-25T06:04:11.778Z,100.00
2022-08-25T06:06:39.379Z,100.00
2022-08-25T06:09:08.621Z,100.00
2022-08-25T06:11:36.373Z,100.00
2022-08-25T06:14:03.093Z,100.00
2022-08-25T06:16:29.843Z,100.00
2022-08-25T06:18:56.552Z,100.00
2022-08-25T06:21:23.259Z,100.00
2022-08-25T06:23:50.297Z,100.00
2022-08-25T06:26:21.459Z,100.00
2022-08-25T06:28:49.774Z,100.00
2022-08-25T06:31:17.261Z,100.00
2022-08-25T06:33:44.953Z,100.00
2022-08-25T06:36:11.835Z,100.00
2022-08-25T06:38:38.509Z,100.00
2022-08-25T06:41:06.816Z,100.00
2022-08-25T06:43:34.068Z,100.00
2022-08-25T06:46:19.101Z,100.00
2022-08-25T06:48:45.965Z,100.00
2022-08-25T06:51:16.842Z,100.00
2022-08-25T06:53:45.088Z,100.00
2022-08-25T06:56:12.331Z,97.23
2022-08-25T06:58:39.753Z,100.00
2022-08-25T07:01:20.516Z,100.00
2022-08-25T07:03:48.195Z,100.00
2022-08-25T07:06:16.553Z,100.00
2022-08-25T07:08:48.399Z,100.00
2022-08-25T07:11:17.533Z,100.00
2022-08-25T07:13:45.267Z,100.00
2022-08-25T07:16:12.610Z,96.02
2022-08-25T07:18:39.275Z,98.90
2022-08-25T07:21:09.144Z,95.09
2022-08-25T07:23:36.390Z,96.63
2022-08-25T07:26:35.968Z,93.56
2022-08-25T07:29:04.776Z,89.97
2022-08-25T07:31:33.013Z,94.34
2022-08-25T07:34:18.608Z,94.81
2022-08-25T07:36:45.293Z,95.70
2022-08-25T07:39:12.378Z,98.50
2022-08-25T07:41:41.700Z,95.43
2022-08-25T07:44:10.966Z,97.98
2022-08-25T07:46:38.565Z,96.37
2022-08-25T07:49:16.428Z,95.79
2022-08-25T07:52:04.662Z,99.16
2022-08-25T07:54:34.441Z,98.03
2022-08-25T07:57:03.128Z,97.82
2022-08-25T07:59:29.809Z,100.00
2022-08-25T08:01:57.477Z,99.88
2022-08-25T08:04:24.249Z,99.04
2022-08-25T08:06:50.866Z,98.58
2022-08-25T08:09:17.544Z,89.14
2022-08-25T08:11:53.897Z,88.17
2022-08-25T08:14:21.254Z,86.65
2022-08-25T08:16:47.986Z,84.90
2022-08-25T08:19:15.312Z,77.64
2022-08-25T08:21:42.451Z,77.76
2022-08-25T08:24:24.813Z,78.14
2022-08-25T08:26:59.067Z,71.99
2022-08-25T08:29:26.926Z,66.56
2022-08-25T08:31:53.596Z,70.37
2022-08-25T08:34:20.325Z,70.23
2022-08-25T08:36:52.120Z,68.22
2022-08-25T08:39:18.705Z,70.33
2022-08-25T08:42:18.274Z,71.89
2022-08-25T08:44:44.815Z,68.14
2022-08-25T08:47:33.734Z,66.15
2022-08-25T08:50:30.801Z,65.22
2022-08-25T08:53:06.855Z,65.05
2022-08-25T08:55:40.734Z,61.23
2022-08-25T08:58:15.524Z,56.37
2022-08-25T09:00:51.945Z,55.63
2022-08-25T09:03:41.670Z,58.21
2022-08-25T09:06:14.246Z,63.44
2022-08-25T09:08:44.965Z,67.11
2022-08-25T09:11:31.081Z,63.36
2022-08-25T09:14:30.651Z,60.36
2022-08-25T09:17:29.747Z,61.42
2022-08-25T09:20:18.622Z,58.22
2022-08-25T09:23:16.502Z,58.73
2022-08-25T09:25:52.941Z,51.27
2022-08-25T09:28:26.059Z,52.32
2022-08-25T09:31:05.036Z,52.29
2022-08-25T09:33:35.452Z,52.59
2022-08-25T09:36:05.977Z,50.70
2022-08-25T09:38:33.552Z,50.31
2022-08-25T09:41:01.485Z,48.06
2022-08-25T09:43:41.761Z,49.32
2022-08-25T09:46:08.285Z,50.92
2022-08-25T09:48:56.894Z,51.04
2022-08-25T09:51:24.141Z,50.74
2022-08-25T09:54:16.311Z,51.17
2022-08-25T09:57:01.910Z,51.79
2022-08-25T09:59:35.239Z,51.73
2022-08-25T10:02:25.215Z,51.78
2022-08-25T10:04:53.179Z,52.18
2022-08-25T10:07:35.619Z,53.65
2022-08-25T10:10:16.179Z,53.35
2022-08-25T10:12:51.024Z,53.71
2022-08-25T10:15:29.598Z,53.82
2022-08-25T10:18:16.980Z,54.29
2022-08-25T10:20:44.775Z,53.10
2022-08-25T10:23:19.137Z,52.63
2022-08-25T10:25:57.628Z,47.94
2022-08-25T10:28:32.685Z,44.31
2022-08-25T10:31:25.878Z,42.38
2022-08-25T10:34:03.642Z,43.94
2022-08-25T10:36:41.448Z,44.42
2022-08-25T10:39:36.230Z,43.34
2022-08-25T10:42:29.817Z,45.01
2022-08-25T10:45:33.943Z,46.00
2022-08-25T10:48:25.666Z,46.29
2022-08-25T10:50:52.546Z,46.34
2022-08-25T10:53:24.837Z,46.75
2022-08-25T10:56:01.251Z,47.63
2022-08-25T10:58:46.411Z,47.53
2022-08-25T11:01:42.980Z,46.98
2022-08-25T11:04:15.701Z,46.84
2022-08-25T11:07:03.307Z,46.02
2022-08-25T11:09:38.753Z,45.67
2022-08-25T11:12:27.503Z,47.34
2022-08-25T11:15:04.108Z,47.66
2022-08-25T11:17:53.820Z,47.80
2022-08-25T11:20:28.391Z,48.04
2022-08-25T11:23:05.347Z,48.64
2022-08-25T11:25:46.011Z,49.54
2022-08-25T11:28:27.575Z,49.52
2022-08-25T11:30:57.828Z,48.29
2022-08-25T11:33:26.647Z,47.67
2022-08-25T11:36:12.439Z,47.36
2022-08-25T11:38:48.032Z,46.32
2022-08-25T11:41:26.483Z,46.79
2022-08-25T11:44:08.117Z,46.35
2022-08-25T11:46:50.228Z,45.85
2022-08-25T11:49:26.273Z,45.93
2022-08-25T11:51:53.246Z,45.72
2022-08-25T11:54:26.444Z,45.90
2022-08-25T11:57:07.402Z,45.38
2022-08-25T11:59:52.363Z,43.79
2022-08-25T12:02:39.206Z,44.70
2022-08-25T12:05:12.918Z,44.88
2022-08-25T12:08:23.305Z,45.21
2022-08-25T12:11:07.261Z,45.85
2022-08-25T12:13:51.266Z,45.41
2022-08-25T12:16:56.459Z,42.35
2022-08-25T12:19:23.131Z,40.67
2022-08-25T12:21:50.890Z,41.42
2022-08-25T12:24:22.164Z,41.72
2022-08-25T12:26:54.968Z,43.00
2022-08-25T12:29:39.205Z,43.38
2022-08-25T12:32:25.402Z,43.25
2022-08-25T12:35:23.236Z,42.73
2022-08-25T12:38:02.583Z,41.80
2022-08-25T12:40:54.729Z,41.98
2022-08-25T12:43:33.302Z,42.58
2022-08-25T12:46:29.814Z,42.31
2022-08-25T12:49:05.907Z,42.66
2022-08-25T12:51:33.792Z,42.91
2022-08-25T12:54:19.136Z,42.44
2022-08-25T12:57:00.327Z,41.78
2022-08-25T12:59:31.417Z,41.94
2022-08-25T13:02:07.212Z,42.82
2022-08-25T13:04:36.648Z,42.55
2022-08-25T13:07:26.274Z,42.30
2022-08-25T13:10:02.068Z,42.99
2022-08-25T13:12:46.768Z,43.06
2022-08-25T13:15:25.070Z,43.61
2022-08-25T13:17:52.851Z,44.04
2022-08-25T13:20:30.430Z,43.39
2022-08-25T13:23:00.659Z,43.69
2022-08-25T13:25:32.105Z,42.09
2022-08-25T13:28:03.206Z,42.54
2022-08-25T13:30:39.395Z,42.81
2022-08-25T13:33:20.706Z,42.82
2022-08-25T13:36:12.199Z,43.11
2022-08-25T13:38:39.441Z,42.96
2022-08-25T13:41:09.570Z,42.18
2022-08-25T13:43:38.585Z,42.33
2022-08-25T13:46:06.349Z,41.98
2022-08-25T13:48:34.746Z,42.13
2022-08-25T13:51:19.729Z,42.73
2022-08-25T13:53:53.977Z,42.09
2022-08-25T13:56:39.972Z,42.26
2022-08-25T13:59:26.930Z,41.97
2022-08-25T14:01:55.229Z,42.12
2022-08-25T14:04:33.070Z,42.30
2022-08-25T14:07:20.962Z,42.36
2022-08-25T14:09:54.099Z,43.26
2022-08-25T14:12:45.485Z,42.28
2022-08-25T14:15:18.137Z,42.29
2022-08-25T14:17:48.957Z,41.57
2022-08-25T14:20:25.621Z,42.12
2022-08-25T14:22:57.906Z,41.56
2022-08-25T14:25:25.759Z,41.59
2022-08-25T14:28:13.646Z,42.17
2022-08-25T14:30:46.102Z,42.59
2022-08-25T14:33:14.360Z,42.44
2022-08-25T14:35:46.236Z,42.87
2022-08-25T14:38:14.962Z,43.26
2022-08-25T14:40:41.991Z,42.63
2022-08-25T14:43:09.625Z,43.33
2022-08-25T14:45:39.926Z,43.26
2022-08-25T14:48:37.041Z,43.77
2022-08-25T14:51:04.530Z,44.02
2022-08-25T14:53:32.098Z,44.30
2022-08-25T14:55:59.423Z,44.49
2022-08-25T14:58:28.002Z,44.20
2022-08-25T15:01:02.839Z,44.23
2022-08-25T15:03:38.583Z,43.77
2022-08-25T15:06:05.931Z,44.01
2022-08-25T15:08:51.344Z,43.97
2022-08-25T15:11:18.106Z,44.21
2022-08-25T15:13:49.464Z,44.01
2022-08-25T15:16:23.694Z,44.03
2022-08-25T15:19:01.587Z,44.91
2022-08-25T15:21:33.277Z,45.52
2022-08-25T15:24:00.519Z,45.18
2022-08-25T15:26:27.708Z,44.48
2022-08-25T15:28:54.392Z,45.05
2022-08-25T15:31:21.547Z,44.97
2022-08-25T15:33:48.324Z,45.53
2022-08-25T15:36:22.354Z,45.85
2022-08-25T15:38:51.310Z,46.43
2022-08-25T15:41:18.001Z,46.33
2022-08-25T15:43:44.645Z,46.19
2022-08-25T15:46:14.311Z,46.27
2022-08-25T15:48:41.230Z,46.48
2022-08-25T15:51:08.658Z,46.11
2022-08-25T15:53:36.389Z,45.87
2022-08-25T15:56:06.983Z,45.81
2022-08-25T15:58:35.393Z,45.48
2022-08-25T16:01:02.853Z,45.94
2022-08-25T16:03:31.439Z,46.04
2022-08-25T16:05:58.053Z,46.16
2022-08-25T16:08:24.706Z,45.95
2022-08-25T16:10:51.740Z,46.14
2022-08-25T16:13:18.670Z,47.11
2022-08-25T16:15:54.384Z,48.15
2022-08-25T16:18:23.140Z,48.27
2022-08-25T16:20:50.143Z,48.70
2022-08-25T16:23:18.753Z,49.06
2022-08-25T16:25:46.802Z,49.41
2022-08-25T16:28:16.514Z,50.04
2022-08-25T16:30:53.063Z,51.07
2022-08-25T16:33:21.267Z,51.18
2022-08-25T16:35:49.316Z,51.20
2022-08-25T16:38:16.099Z,51.44
2022-08-25T16:40:43.250Z,51.77
2022-08-25T16:43:10.500Z,52.07
2022-08-25T16:45:37.515Z,52.60
2022-08-25T16:48:05.889Z,53.07
2022-08-25T16:50:34.171Z,53.00
2022-08-25T16:53:23.879Z,53.78
2022-08-25T16:56:00.436Z,53.61
2022-08-25T16:58:27.039Z,54.92
2022-08-25T17:01:05.183Z,55.71
2022-08-25T17:03:34.517Z,56.15
2022-08-25T17:06:01.226Z,56.29
2022-08-25T17:08:31.042Z,56.51
2022-08-25T17:11:17.605Z,56.76
2022-08-25T17:13:49.787Z,56.55
2022-08-25T17:16:17.170Z,57.12
2022-08-25T17:18:47.871Z,57.80
2022-08-25T17:21:20.422Z,57.53
2022-08-25T17:23:51.323Z,58.35
2022-08-25T17:26:18.159Z,59.25
2022-08-25T17:28:44.946Z,60.83
2022-08-25T17:31:13.913Z,63.17
2022-08-25T17:33:41.260Z,60.75
2022-08-25T17:36:08.500Z,60.57
2022-08-25T17:38:36.521Z,61.34
2022-08-25T17:41:06.935Z,65.00
2022-08-25T17:43:37.381Z,61.70
2022-08-25T17:46:05.296Z,61.70
2022-08-25T17:48:33.093Z,64.08
2022-08-25T17:51:01.141Z,62.08
2022-08-25T17:53:28.303Z,62.51
2022-08-25T17:56:04.459Z,62.81
2022-08-25T17:58:33.108Z,64.13
2022-08-25T18:01:00.343Z,63.01
2022-08-25T18:03:28.115Z,63.08
2022-08-25T18:05:55.252Z,62.24
2022-08-25T18:08:22.382Z,64.21
2022-08-25T18:11:02.484Z,62.88
2022-08-25T18:13:29.470Z,64.60
2022-08-25T18:15:56.136Z,66.00
2022-08-25T18:18:24.177Z,66.80
2022-08-25T18:20:51.229Z,67.64
2022-08-25T18:23:19.808Z,67.82
2022-08-25T18:25:48.694Z,70.26
2022-08-25T18:28:15.976Z,68.33
2022-08-25T18:30:43.242Z,67.17
2022-08-25T18:33:10.575Z,68.36
2022-08-25T18:35:38.059Z,69.03
2022-08-25T18:38:24.532Z,71.52
2022-08-25T18:41:02.885Z,71.55
2022-08-25T18:43:31.287Z,75.60
2022-08-25T18:46:01.468Z,75.44
2022-08-25T18:48:28.724Z,75.21
2022-08-25T18:50:56.726Z,77.63
2022-08-25T18:53:30.339Z,77.28
2022-08-25T18:56:04.063Z,79.24
2022-08-25T18:58:30.671Z,77.77
2022-08-25T19:00:57.357Z,77.67
2022-08-25T19:03:24.246Z,78.75
2022-08-25T19:05:57.519Z,80.86
2022-08-25T19:08:25.168Z,80.79
2022-08-25T19:10:54.296Z,80.67
2022-08-25T19:13:22.657Z,84.27
2022-08-25T19:15:50.903Z,83.14
2022-08-25T19:18:25.878Z,83.01
2022-08-25T19:20:55.919Z,83.53
2022-08-25T19:23:22.621Z,83.86
2022-08-25T19:25:49.330Z,82.89
2022-08-25T19:28:16.322Z,82.83
2022-08-25T19:30:49.799Z,84.64
2022-08-25T19:33:34.403Z,83.82
2022-08-25T19:36:06.453Z,85.24
2022-08-25T19:38:37.625Z,85.45
2022-08-25T19:41:13.946Z,87.11
2022-08-25T19:43:55.692Z,86.66
2022-08-25T19:46:32.197Z,86.47
2022-08-25T19:49:07.961Z,86.63
2022-08-25T19:51:38.762Z,85.12
2022-08-25T19:54:08.997Z,85.35
2022-08-25T19:56:36.480Z,85.39
2022-08-25T19:59:03.862Z,84.76
2022-08-25T20:01:30.615Z,86.58
2022-08-25T20:03:57.332Z,86.35
2022-08-25T20:06:24.220Z,87.13
2022-08-25T20:08:58.926Z,89.21
2022-08-25T20:11:28.965Z,88.21
2022-08-25T20:13:59.272Z,86.93
2022-08-25T20:16:29.890Z,86.16
2022-08-25T20:18:56.587Z,88.83
2022-08-25T20:21:24.212Z,87.27
2022-08-25T20:24:09.488Z,83.99
2022-08-25T20:26:36.481Z,84.74
2022-08-25T20:29:05.052Z,82.37
2022-08-25T20:31:32.321Z,84.67
2022-08-25T20:34:00.951Z,85.22
2022-08-25T20:36:29.807Z,85.06
2022-08-25T20:38:56.507Z,86.88
2022-08-25T20:41:25.781Z,85.26
2022-08-25T20:43:52.453Z,88.74
2022-08-25T20:46:19.379Z,89.29
2022-08-25T20:48:46.084Z,91.83
2022-08-25T20:51:13.233Z,90.65
2022-08-25T20:53:42.502Z,89.77
2022-08-25T20:56:14.637Z,91.02
2022-08-25T20:58:42.158Z,92.62
2022-08-25T21:01:20.336Z,88.38
2022-08-25T21:03:50.354Z,86.69
2022-08-25T21:06:17.170Z,90.52
2022-08-25T21:08:46.663Z,87.63
2022-08-25T21:11:17.962Z,83.96
2022-08-25T21:13:45.888Z,85.00
2022-08-25T21:16:12.691Z,87.05
2022-08-25T21:18:44.196Z,88.62
2022-08-25T21:21:16.689Z,88.39
2022-08-25T21:23:46.969Z,88.72
2022-08-25T21:26:22.864Z,89.55
2022-08-25T21:28:49.745Z,88.83
2022-08-25T21:31:18.001Z,88.75
2022-08-25T21:33:48.159Z,85.39
2022-08-25T21:36:19.511Z,86.44
2022-08-25T21:38:47.999Z,90.87
2022-08-25T21:41:21.398Z,92.73
2022-08-25T21:43:49.481Z,92.77
2022-08-25T21:46:19.929Z,93.94
2022-08-25T21:48:49.094Z,95.39
2022-08-25T21:51:19.375Z,94.64
2022-08-25T21:53:46.939Z,91.55
2022-08-25T21:56:22.379Z,89.80
2022-08-25T21:58:52.840Z,87.32
2022-08-25T22:01:20.525Z,87.29
2022-08-25T22:03:49.741Z,86.15
2022-08-25T22:06:16.566Z,87.56
2022-08-25T22:08:46.289Z,86.68
2022-08-25T22:11:16.414Z,86.16
2022-08-25T22:13:46.765Z,84.90
2022-08-25T22:16:21.528Z,84.96
2022-08-25T22:18:48.660Z,85.90
2022-08-25T22:21:18.905Z,85.38
2022-08-25T22:23:45.939Z,85.99
2022-08-25T22:26:16.411Z,85.62
2022-08-25T22:28:48.774Z,86.75
2022-08-25T22:31:20.916Z,87.64
2022-08-25T22:33:48.591Z,88.00
2022-08-25T22:36:16.152Z,88.19
2022-08-25T22:38:44.223Z,89.18
2022-08-25T22:41:11.592Z,90.73
2022-08-25T22:43:52.907Z,93.72
2022-08-25T22:46:21.596Z,91.04
2022-08-25T22:48:50.298Z,92.70
2022-08-25T22:51:21.435Z,95.17
2022-08-25T22:53:49.224Z,94.28
2022-08-25T22:56:18.964Z,95.60
2022-08-25T22:58:51.768Z,91.57
2022-08-25T23:01:20.497Z,90.65
2022-08-25T23:03:47.680Z,92.00
2022-08-25T23:06:24.653Z,90.30
2022-08-25T23:08:53.830Z,89.46
2022-08-25T23:11:22.565Z,90.14
2022-08-25T23:13:50.187Z,90.97
2022-08-25T23:16:17.969Z,94.47
2022-08-25T23:18:46.828Z,91.06
2022-08-25T23:21:37.922Z,90.29
2022-08-25T23:24:10.819Z,89.82
2022-08-25T23:26:42.002Z,90.87
2022-08-25T23:29:18.700Z,87.89
2022-08-25T23:31:47.673Z,88.36
2022-08-25T23:34:15.844Z,89.11
2022-08-25T23:36:43.362Z,89.18
2022-08-25T23:39:11.285Z,90.35
2022-08-25T23:41:39.154Z,90.54
2022-08-25T23:44:09.170Z,94.48
2022-08-25T23:46:38.502Z,92.42
2022-08-25T23:49:08.236Z,92.89
2022-08-25T23:51:38.316Z,93.91
2022-08-25T23:54:09.652Z,95.23
2022-08-25T23:56:44.741Z,96.17
2022-08-25T23:59:18.243Z,95.34
